Time;durP1;ratioP1;P1;durP2;ratioP2;P2;SDS_P1;SDS_P2;PMS_P1;PMS_P2;Temp;Humidity;BMP_temperature;BMP_pressure;BME280_temperature;BME280_humidity;BME280_pressure;Samples;Min_cycle;Max_cycle;Signal;HPM_P1;HPM_P2
2022/06/10 00:00:26;;;;;;;3.93;1.90;;;17.70;74.40;;;-142.21;100.00;112049.66;5111971;28;20446;-72
2022/06/10 00:02:54;;;;;;;4.57;1.80;;;17.80;74.20;;;-142.21;100.00;112049.66;5111857;28;20867;-72
2022/06/10 00:05:25;;;;;;;2.13;1.93;;;17.80;73.90;;;-142.21;100.00;112049.66;5112067;28;20581;-72
2022/06/10 00:07:55;;;;;;;3.03;1.80;;;17.80;73.90;;;-142.21;100.00;112049.66;5112283;28;20771;-71
2022/06/10 00:10:26;;;;;;;2.30;1.90;;;17.80;74.70;;;-142.21;100.00;112049.66;5111455;28;20426;-72
2022/06/10 00:12:55;;;;;;;4.60;2.47;;;17.80;73.90;;;-142.21;100.00;112049.66;5112294;28;20473;-71
2022/06/10 00:15:23;;;;;;;2.23;2.00;;;17.80;73.60;;;-142.21;100.00;112049.66;5111796;28;20445;-70
2022/06/10 00:17:51;;;;;;;3.93;1.80;;;17.80;73.50;;;-142.21;100.00;112049.66;5112674;28;20458;-72
2022/06/10 00:20:23;;;;;;;2.23;2.00;;;17.70;73.20;;;-142.21;100.00;112049.66;5112343;28;20628;-71
2022/06/10 00:22:50;;;;;;;2.13;1.70;;;17.70;73.10;;;-142.21;100.00;112049.66;5112148;28;20436;-71
2022/06/10 00:25:18;;;;;;;1.90;1.70;;;17.70;73.30;;;-142.21;100.00;112049.66;5112284;28;20448;-72
2022/06/10 00:27:46;;;;;;;2.87;2.23;;;17.70;73.30;;;-142.21;100.00;112049.66;5111991;28;20817;-72
2022/06/10 00:30:17;;;;;;;4.87;2.83;;;17.60;73.20;;;-142.21;100.00;112049.66;5112488;28;20513;-72
2022/06/10 00:32:44;;;;;;;5.10;1.93;;;17.50;73.60;;;-142.21;100.00;112049.66;5111387;28;20476;-71
2022/06/10 00:35:13;;;;;;;4.80;2.17;;;17.50;74.40;;;-142.21;100.00;112049.66;5112426;28;20449;-72
2022/06/10 00:37:41;;;;;;;3.43;2.03;;;17.50;73.70;;;-142.21;100.00;112049.66;5111849;28;20825;-71
2022/06/10 00:40:15;;;;;;;2.57;2.00;;;17.50;73.60;;;-142.21;100.00;112049.66;5111678;28;20461;-71
2022/06/10 00:42:42;;;;;;;4.03;2.10;;;17.50;73.20;;;-142.21;100.00;112049.66;5111536;28;20421;-71
2022/06/10 00:46:00;;;;;;;3.37;2.00;;;17.50;73.10;;;-142.21;100.00;112049.66;5111819;28;20448;-71
2022/06/10 00:48:37;;;;;;;5.07;2.20;;;17.50;73.50;;;-142.21;100.00;112049.66;5111150;28;20944;-71
2022/06/10 00:51:25;;;;;;;3.97;2.10;;;17.50;73.10;;;-142.21;100.00;112049.66;5102999;28;20438;-71
2022/06/10 00:53:59;;;;;;;2.57;2.27;;;17.50;73.10;;;-142.21;100.00;112049.66;5113023;28;20469;-71
2022/06/10 00:56:29;;;;;;;2.90;2.30;;;17.40;72.90;;;-142.21;100.00;112049.66;5115305;28;20459;-71
2022/06/10 00:59:02;;;;;;;4.43;2.40;;;17.40;72.90;;;-142.21;100.00;112049.66;5115430;28;20447;-71
2022/06/10 01:01:33;;;;;;;3.10;2.30;;;17.40;72.80;;;-142.21;100.00;112049.66;5115086;28;20533;-71
2022/06/10 01:04:03;;;;;;;2.60;2.30;;;17.40;72.70;;;-142.21;100.00;112049.66;5115629;28;20468;-71
2022/06/10 01:06:31;;;;;;;3.27;2.60;;;17.40;72.60;;;-142.21;100.00;112049.66;5114618;28;20449;-71
2022/06/10 01:09:03;;;;;;;4.53;2.37;;;17.40;72.70;;;-142.21;100.00;112049.66;5114918;28;20445;-71
2022/06/10 01:12:11;;;;;;;4.27;2.33;;;17.40;72.80;;;-142.21;100.00;112049.66;5114535;28;20480;-71
2022/06/10 01:14:58;;;;;;;2.33;2.13;;;17.40;72.90;;;-142.21;100.00;112049.66;5107777;28;20477;-71
2022/06/10 01:17:49;;;;;;;3.47;2.27;;;17.40;72.70;;;-142.21;100.00;112049.66;5114925;28;20438;-71
2022/06/10 01:20:34;;;;;;;2.90;2.60;;;17.40;72.60;;;-142.21;100.00;112049.66;5108756;28;20445;-71
2022/06/10 01:24:00;;;;;;;2.80;2.10;;;17.30;72.50;;;-142.21;100.00;112049.66;5114433;28;20432;-71
2022/06/10 01:30:49;;;;;;;2.67;2.20;;;17.30;72.40;;;-142.21;100.00;112049.66;5115000;28;20474;-71
2022/06/10 01:33:34;;;;;;;2.47;2.27;;;17.30;72.60;;;-142.21;100.00;112049.66;5102824;28;20488;-71
2022/06/10 01:36:10;;;;;;;3.53;2.30;;;17.20;72.50;;;-142.21;100.00;112049.66;5114974;28;20437;-71
2022/06/10 01:38:48;;;;;;;2.53;2.33;;;17.20;72.60;;;-142.21;100.00;112049.66;5113807;28;20875;-71
2022/06/10 01:41:27;;;;;;;2.63;2.20;;;17.10;72.60;;;-142.21;100.00;112049.66;5114760;28;20433;-72
2022/06/10 01:44:08;;;;;;;3.17;2.40;;;17.00;72.70;;;-142.21;100.00;112049.66;5115225;28;20434;-72
2022/06/10 01:46:43;;;;;;;4.87;2.40;;;17.00;72.70;;;-142.21;100.00;112049.66;5113741;28;20430;-71
2022/06/10 01:49:21;;;;;;;2.57;2.37;;;17.00;72.70;;;-142.21;100.00;112049.66;5114986;28;20440;-72
2022/06/10 01:52:01;;;;;;;2.33;2.13;;;17.00;72.60;;;-142.21;100.00;112049.66;5113574;28;20529;-71
2022/06/10 01:54:40;;;;;;;3.00;2.10;;;17.00;72.50;;;-142.21;100.00;112049.66;5110315;28;20474;-71
2022/06/10 01:57:14;;;;;;;2.53;2.33;;;16.90;73.10;;;-142.21;100.00;112049.66;5114500;28;20445;-72
2022/06/10 01:59:49;;;;;;;3.73;2.17;;;16.90;72.50;;;-142.21;100.00;112049.66;5109072;28;20464;-72
2022/06/10 02:02:25;;;;;;;2.47;2.27;;;16.90;72.60;;;-142.21;100.00;112049.66;5112212;28;20939;-71
2022/06/10 02:04:58;;;;;;;2.77;2.30;;;16.90;72.90;;;-142.21;100.00;112049.66;5113934;28;20475;-71
2022/06/10 02:07:33;;;;;;;2.40;1.90;;;16.90;72.70;;;-142.21;100.00;112049.66;5108421;28;20444;-71
2022/06/10 02:10:09;;;;;;;2.83;2.40;;;16.80;72.90;;;-142.21;100.00;112049.66;5113707;28;20952;-71
2022/06/10 02:12:42;;;;;;;6.03;2.50;;;16.80;72.70;;;-142.21;100.00;112049.66;5072138;28;20447;-71
2022/06/10 02:15:19;;;;;;;3.27;2.37;;;16.80;72.80;;;-142.21;100.00;112049.66;5073870;28;20431;-71
2022/06/10 02:17:54;;;;;;;2.47;2.27;;;16.80;72.90;;;-142.21;100.00;112049.66;5072623;28;20492;-71
2022/06/10 02:20:30;;;;;;;2.30;2.00;;;16.70;72.70;;;-142.21;100.00;112049.66;5072590;28;20816;-71
2022/06/10 02:23:04;;;;;;;2.57;2.37;;;16.70;72.70;;;-142.21;100.00;112049.66;5073410;28;20449;-71
2022/06/10 02:25:40;;;;;;;3.77;2.30;;;16.70;72.70;;;-142.21;100.00;112049.66;5072702;28;20467;-71
2022/06/10 02:28:15;;;;;;;4.53;2.47;;;16.60;72.60;;;-142.21;100.00;112049.66;5072036;28;20445;-72
2022/06/10 02:30:50;;;;;;;3.60;2.30;;;16.50;72.90;;;-142.21;100.00;112049.66;5072405;28;20526;-72
2022/06/10 02:33:19;;;;;;;2.77;2.00;;;16.30;73.20;;;-142.21;100.00;112049.66;5072942;28;20467;-72
2022/06/10 02:35:56;;;;;;;2.07;1.87;;;16.10;73.70;;;-142.21;100.00;112049.66;5071871;28;20439;-71
2022/06/10 02:38:38;;;;;;;2.37;2.10;;;16.10;73.80;;;-142.21;100.00;112049.66;5073304;28;20528;-72
2022/06/10 02:41:18;;;;;;;4.10;2.37;;;16.10;73.80;;;-142.21;100.00;112049.66;5072924;28;20944;-71
2022/06/10 02:43:58;;;;;;;3.07;2.67;;;16.10;73.70;;;-142.21;100.00;112049.66;5072430;28;20912;-71
2022/06/10 02:46:34;;;;;;;2.93;2.40;;;16.20;73.70;;;-142.21;100.00;112049.66;5073038;28;20450;-72
2022/06/10 02:49:07;;;;;;;2.30;2.10;;;16.20;73.50;;;-142.21;100.00;112049.66;5072837;28;20497;-71
2022/06/10 02:51:36;;;;;;;3.33;2.50;;;16.10;73.30;;;-142.21;100.00;112049.66;5072170;28;20440;-71
2022/06/10 02:54:08;;;;;;;2.77;2.40;;;16.10;73.40;;;-142.21;100.00;112049.66;5072977;28;20575;-72
2022/06/10 02:56:35;;;;;;;3.00;2.30;;;16.10;73.50;;;-142.21;100.00;112049.66;5072229;28;20446;-72
2022/06/10 03:02:19;;;;;;;2.50;2.30;;;16.00;73.60;;;-142.21;100.00;112049.66;5065040;28;20423;-71
2022/06/10 03:05:06;;;;;;;2.40;2.20;;;16.10;74.20;;;-142.21;100.00;112049.66;5052184;28;20460;-71
2022/06/10 03:07:56;;;;;;;3.30;2.40;;;16.10;73.30;;;-142.21;100.00;112049.66;5068826;28;20450;-71
2022/06/10 03:10:36;;;;;;;3.93;2.70;;;16.10;73.10;;;-142.21;100.00;112049.66;5076975;28;20432;-72
2022/06/10 03:13:33;;;;;;;3.03;2.33;;;16.10;72.70;;;-142.21;100.00;112049.66;5111336;28;20444;-71
2022/06/10 03:16:28;;;;;;;2.53;2.30;;;16.10;72.70;;;-142.21;100.00;112049.66;5105359;28;20491;-71
2022/06/10 03:19:13;;;;;;;3.50;2.27;;;16.10;72.70;;;-142.21;100.00;112049.66;5112135;28;20524;-71
2022/06/10 03:21:57;;;;;;;3.37;2.20;;;16.00;72.60;;;-142.21;100.00;112049.66;5112621;28;20441;-71
2022/06/10 03:24:39;;;;;;;2.50;2.30;;;16.10;72.80;;;-142.21;100.00;112049.66;5115883;28;20484;-71
2022/06/10 03:27:17;;;;;;;2.57;2.30;;;16.10;72.80;;;-142.21;100.00;112049.66;5114394;28;20445;-71
2022/06/10 03:29:52;;;;;;;3.03;2.20;;;16.10;72.80;;;-142.21;100.00;112049.66;5112824;28;20437;-72
2022/06/10 03:32:29;;;;;;;2.40;2.10;;;16.10;72.80;;;-142.21;100.00;112049.66;5082209;28;20445;-72
2022/06/10 03:35:05;;;;;;;3.73;2.30;;;16.10;72.90;;;-142.21;100.00;112049.66;5116479;28;20526;-72
2022/06/10 03:37:36;;;;;;;2.30;2.10;;;16.00;72.70;;;-142.21;100.00;112049.66;5111935;28;20937;-72
2022/06/10 03:40:06;;;;;;;2.30;2.10;;;16.00;72.60;;;-142.21;100.00;112049.66;5112809;28;20454;-72
2022/06/10 03:42:34;;;;;;;3.43;2.17;;;16.00;72.50;;;-142.21;100.00;112049.66;5112036;28;20676;-72
2022/06/10 03:45:01;;;;;;;2.47;2.27;;;16.00;72.50;;;-142.21;100.00;112049.66;5092531;28;20447;-72
2022/06/10 03:47:32;;;;;;;3.43;1.93;;;16.00;72.40;;;-142.21;100.00;112049.66;5108772;28;20448;-72
2022/06/10 03:50:08;;;;;;;2.57;1.97;;;16.00;72.40;;;-142.21;100.00;112049.66;5112518;28;20434;-72
2022/06/10 03:52:41;;;;;;;3.30;2.00;;;16.00;72.40;;;-142.21;100.00;112049.66;5111919;28;20906;-72
2022/06/10 03:55:14;;;;;;;2.37;2.10;;;16.00;72.40;;;-142.21;100.00;112049.66;5112325;28;21038;-72
2022/06/10 03:57:41;;;;;;;2.23;2.03;;;16.00;72.50;;;-142.21;100.00;112049.66;5112010;28;20434;-72
2022/06/10 04:00:14;;;;;;;2.70;2.07;;;16.10;72.50;;;-142.21;100.00;112049.66;5112813;28;20434;-71
2022/06/10 04:02:41;;;;;;;4.13;2.57;;;16.00;72.40;;;-142.21;100.00;112049.66;5111024;28;20910;-71
2022/06/10 04:05:10;;;;;;;2.93;2.20;;;16.00;72.40;;;-142.21;100.00;112049.66;5111897;28;20465;-71
2022/06/10 04:07:40;;;;;;;2.23;2.03;;;16.00;72.50;;;-142.21;100.00;112049.66;5111710;28;20519;-72
2022/06/10 04:10:12;;;;;;;2.70;2.10;;;16.00;72.70;;;-142.21;100.00;112049.66;5112376;28;20457;-71
2022/06/10 04:12:39;;;;;;;2.97;2.47;;;16.00;72.90;;;-142.21;100.00;112049.66;5111259;28;20914;-72
2022/06/10 04:15:09;;;;;;;2.13;2.03;;;16.00;72.80;;;-142.21;100.00;112049.66;5112368;28;20493;-72
2022/06/10 04:17:36;;;;;;;1.93;1.73;;;16.10;73.00;;;-142.21;100.00;112049.66;5111432;28;20813;-72
2022/06/10 04:20:04;;;;;;;2.30;2.10;;;16.10;73.00;;;-142.21;100.00;112049.66;5111816;28;20448;-71
2022/06/10 04:22:32;;;;;;;2.10;1.90;;;16.10;73.10;;;-142.21;100.00;112049.66;5111819;28;20446;-72
2022/06/10 04:25:00;;;;;;;4.40;2.20;;;16.10;73.30;;;-142.21;100.00;112049.66;5111633;28;20465;-71
2022/06/10 04:27:27;;;;;;;3.63;2.03;;;16.20;73.40;;;-142.21;100.00;112049.66;5111782;28;20794;-72
2022/06/10 04:29:54;;;;;;;2.03;1.83;;;16.20;73.30;;;-142.21;100.00;112049.66;5114311;28;20448;-71
2022/06/10 04:32:21;;;;;;;3.70;2.33;;;16.30;73.30;;;-142.21;100.00;112049.66;5115954;28;20459;-72
2022/06/10 04:34:48;;;;;;;5.37;2.10;;;16.30;73.50;;;-142.21;100.00;112049.66;5115395;28;20485;-72
2022/06/10 04:37:15;;;;;;;2.83;2.10;;;16.20;73.60;;;-142.21;100.00;112049.66;5115252;28;20451;-72
2022/06/10 04:39:42;;;;;;;2.43;2.20;;;16.20;73.90;;;-142.21;100.00;112049.66;5079297;28;20449;-71
2022/06/10 04:42:11;;;;;;;2.47;2.10;;;16.20;74.00;;;-142.21;100.00;112049.66;5115497;28;20441;-71
2022/06/10 04:44:38;;;;;;;3.10;2.13;;;16.20;74.30;;;-142.21;100.00;112049.66;5109479;28;20434;-71
2022/06/10 04:47:07;;;;;;;3.03;2.30;;;16.20;74.70;;;-142.21;100.00;112049.66;5115585;28;20445;-71
2022/06/10 04:49:35;;;;;;;2.63;2.40;;;16.20;74.90;;;-142.21;100.00;112049.66;5116052;28;20445;-71
2022/06/10 04:52:03;;;;;;;4.17;2.80;;;16.10;75.20;;;-142.21;100.00;112049.66;5115532;28;20437;-71
2022/06/10 04:54:31;;;;;;;2.77;2.30;;;16.10;75.70;;;-142.21;100.00;112049.66;5115433;28;20473;-71
2022/06/10 04:56:58;;;;;;;4.00;2.77;;;16.10;76.40;;;-142.21;100.00;112049.66;5114743;28;20525;-71
2022/06/10 04:59:27;;;;;;;2.83;2.33;;;16.10;76.90;;;-142.21;100.00;112049.66;5115601;28;20446;-71
2022/06/10 05:01:57;;;;;;;2.90;2.20;;;16.10;77.30;;;-142.21;100.00;112049.66;5114639;28;20534;-71
2022/06/10 05:04:24;;;;;;;3.87;2.40;;;16.10;77.10;;;-142.21;100.00;112049.66;5115902;28;20832;-72
2022/06/10 05:06:51;;;;;;;6.83;2.57;;;16.20;77.00;;;-142.21;100.00;112049.66;5115355;28;20754;-72
2022/06/10 05:09:18;;;;;;;2.70;2.50;;;16.30;76.80;;;-142.21;100.00;112049.66;5116167;28;20540;-72
2022/06/10 05:11:45;;;;;;;2.80;2.50;;;16.40;76.80;;;-142.21;100.00;112049.66;5114067;28;20469;-72
2022/06/10 05:14:12;;;;;;;3.50;2.40;;;16.40;76.80;;;-142.21;100.00;112049.66;5114277;28;20473;-71
2022/06/10 05:16:41;;;;;;;5.90;3.20;;;16.50;76.90;;;-142.21;100.00;112049.66;5114311;28;20445;-70
2022/06/10 05:19:08;;;;;;;3.53;2.50;;;16.50;76.70;;;-142.21;100.00;112049.66;5115458;28;20441;-70
2022/06/10 05:21:36;;;;;;;5.50;2.70;;;16.60;76.50;;;-142.21;100.00;112049.66;5114991;28;20520;-70
2022/06/10 05:24:04;;;;;;;4.73;2.70;;;16.80;76.10;;;-142.21;100.00;112049.66;5113517;27;20438;-69
2022/06/10 05:26:32;;;;;;;5.30;2.60;;;16.90;75.90;;;-142.21;100.00;112049.66;5115003;28;20460;-70
2022/06/10 05:29:00;;;;;;;4.47;2.70;;;16.90;74.60;;;-142.21;100.00;112049.66;5114454;28;20445;-70
2022/06/10 05:31:30;;;;;;;4.63;2.67;;;16.90;74.80;;;-142.21;100.00;112049.66;5114472;28;20442;-71
2022/06/10 05:36:43;;;;;;;5.23;2.43;;;17.00;74.50;;;-142.21;100.00;112049.66;5113367;28;20441;-70
2022/06/10 05:39:11;;;;;;;4.20;3.10;;;17.10;74.40;;;-142.21;100.00;112049.66;5114404;28;20785;-71
2022/06/10 05:44:25;;;;;;;3.10;2.43;;;17.40;74.20;;;-142.21;100.00;112049.66;5114219;28;20496;-71
2022/06/10 05:46:53;;;;;;;3.43;2.50;;;17.50;74.10;;;-142.21;100.00;112049.66;5114358;28;20422;-71
2022/06/10 05:49:22;;;;;;;4.47;2.40;;;17.50;73.90;;;-142.21;100.00;112049.66;5114891;28;20445;-71
2022/06/10 05:51:50;;;;;;;2.73;2.43;;;17.50;74.10;;;-142.21;100.00;112049.66;5113438;28;20926;-71
2022/06/10 05:54:19;;;;;;;3.57;2.40;;;17.60;74.30;;;-142.21;100.00;112049.66;5113888;28;20492;-71
2022/06/10 05:56:46;;;;;;;3.27;2.73;;;17.70;74.60;;;-142.21;100.00;112049.66;5114449;28;20445;-71
2022/06/10 05:59:15;;;;;;;3.27;2.40;;;17.80;74.70;;;-142.21;100.00;112049.66;5113994;28;20460;-71
2022/06/10 06:01:42;;;;;;;3.40;3.07;;;18.00;74.60;;;-142.21;100.00;112049.66;5112926;28;20446;-70
2022/06/10 06:04:09;;;;;;;4.20;2.37;;;18.00;74.60;;;-142.21;100.00;112049.66;5114420;28;20468;-71
2022/06/10 06:06:38;;;;;;;3.67;2.37;;;18.20;73.20;;;-142.21;100.00;112049.66;5114890;28;20809;-71
2022/06/10 06:09:05;;;;;;;4.57;2.30;;;18.30;72.50;;;-142.21;100.00;112049.66;5113845;28;20457;-71
2022/06/10 06:11:32;;;;;;;4.47;2.20;;;18.40;72.10;;;-142.21;100.00;112049.66;5114171;28;20505;-71
2022/06/10 06:13:59;;;;;;;3.80;2.13;;;18.50;71.50;;;-142.21;100.00;112049.66;5113553;28;20445;-71
2022/06/10 06:16:26;;;;;;;6.30;2.77;;;18.60;71.30;;;-142.21;100.00;112049.66;5114788;28;20441;-71
2022/06/10 06:18:53;;;;;;;6.20;2.50;;;18.80;71.10;;;-142.21;100.00;112049.66;5114069;28;20845;-71
2022/06/10 06:21:20;;;;;;;4.40;2.07;;;18.90;70.80;;;-142.21;100.00;112049.66;5114745;28;20934;-71
2022/06/10 06:23:52;;;;;;;4.33;2.30;;;19.00;70.10;;;-142.21;100.00;112049.66;5113598;28;20289;-70
2022/06/10 06:26:19;;;;;;;4.07;2.53;;;19.00;69.20;;;-142.21;100.00;112049.66;5114229;28;20897;-71
2022/06/10 06:28:46;;;;;;;3.73;2.50;;;19.10;69.60;;;-142.21;100.00;112049.66;5113289;28;20451;-71
2022/06/10 06:31:14;;;;;;;4.90;2.30;;;19.20;69.20;;;-142.21;98.54;112049.66;5114449;28;20838;-71
2022/06/10 06:33:42;;;;;;;3.47;2.20;;;19.20;68.00;;;-142.21;98.64;112049.66;5114427;28;20452;-71
2022/06/10 06:36:21;;;;;;;2.60;2.40;;;19.20;67.60;;;-142.21;96.50;112049.66;5114251;28;20485;-71
2022/06/10 06:38:50;;;;;;;5.90;2.30;;;19.20;66.70;;;-142.21;95.60;112049.66;5113438;28;20552;-72
2022/06/10 06:41:19;;;;;;;7.37;2.93;;;19.30;66.40;;;-142.21;95.67;112049.66;5113739;28;20448;-71
2022/06/10 06:43:47;;;;;;;5.23;2.37;;;19.30;66.30;;;-142.21;96.48;112049.66;5113482;28;20552;-71
2022/06/10 06:46:17;;;;;;;3.87;2.53;;;19.50;66.40;;;-142.21;96.25;112049.66;5114034;28;20477;-72
2022/06/10 06:48:44;;;;;;;3.53;2.00;;;19.60;66.10;;;-142.21;94.96;112049.66;5113164;28;20481;-72
2022/06/10 06:51:12;;;;;;;5.17;2.33;;;19.70;65.10;;;-142.21;95.62;112049.66;5113458;28;20212;-71
2022/06/10 06:53:39;;;;;;;4.77;1.77;;;19.70;65.70;;;-142.21;94.92;112049.66;5113814;28;20537;-71
2022/06/10 06:56:08;;;;;;;7.07;2.50;;;19.80;65.40;;;-142.21;95.50;112049.66;5112716;28;20485;-71
2022/06/10 06:58:36;;;;;;;3.40;2.07;;;19.90;65.60;;;-142.21;92.94;112049.66;5113742;28;20524;-71
2022/06/10 07:01:03;;;;;;;3.80;2.00;;;19.90;64.10;;;-142.21;93.31;112049.66;5113131;28;20207;-71
2022/06/10 07:03:30;;;;;;;3.97;2.20;;;20.00;64.20;;;-142.21;94.54;112049.66;5113629;28;20336;-71
2022/06/10 07:05:58;;;;;;;4.23;2.40;;;20.00;64.90;;;-142.21;94.54;112049.66;5112831;28;20529;-72
2022/06/10 07:08:31;;;;;;;3.40;1.90;;;20.20;65.10;;;-142.21;93.10;112049.66;5113442;28;20544;-71
2022/06/10 07:10:59;;;;;;;5.20;2.50;;;20.30;64.10;;;-142.21;92.19;112049.66;5112218;28;20253;-72
2022/06/10 07:13:28;;;;;;;2.80;1.87;;;20.40;63.30;;;-142.21;89.88;112049.66;5113372;28;20210;-71
2022/06/10 07:15:58;;;;;;;2.90;2.17;;;20.40;62.40;;;-142.21;91.73;112049.66;5112700;28;20280;-71
2022/06/10 07:18:25;;;;;;;4.60;2.07;;;20.60;62.80;;;-142.21;88.31;112049.66;5113312;28;20652;-71
2022/06/10 07:20:52;;;;;;;4.87;1.90;;;20.70;61.30;;;-142.21;87.46;112049.66;5112748;28;20600;-71
2022/06/10 07:23:20;;;;;;;3.80;2.20;;;20.70;60.50;;;-142.21;87.45;112049.66;5113434;28;20286;-71
2022/06/10 07:25:48;;;;;;;4.70;2.50;;;20.70;60.70;;;-142.21;89.88;112049.66;5100659;28;20228;-71
2022/06/10 07:28:16;;;;;;;3.43;2.07;;;20.80;61.90;;;-142.21;85.92;112049.66;5113320;28;20235;-71
2022/06/10 07:30:46;;;;;;;2.50;1.80;;;20.90;60.00;;;-142.21;88.63;112049.66;5113094;28;20992;-71
2022/06/10 07:33:14;;;;;;;2.13;1.93;;;20.90;61.40;;;-142.21;86.40;112049.66;5113200;28;20656;-71
2022/06/10 07:35:42;;;;;;;3.07;2.20;;;21.10;60.80;;;-142.21;84.91;112049.66;5113096;28;20271;-71
2022/06/10 07:38:11;;;;;;;4.67;2.40;;;21.10;59.50;;;-142.21;84.75;112049.66;5112651;28;20563;-71
2022/06/10 07:43:28;;;;;;;3.43;1.70;;;21.10;60.40;;;-142.21;85.28;112049.66;5113060;28;20199;-70
2022/06/10 07:45:57;;;;;;;3.07;2.13;;;21.20;60.00;;;-142.21;84.55;112049.66;5112383;28;20287;-72
2022/06/10 07:48:24;;;;;;;3.40;1.93;;;21.30;59.50;;;-142.21;83.65;112049.66;5112880;28;20219;-70
2022/06/10 07:50:51;;;;;;;3.93;2.10;;;21.40;59.20;;;-142.21;84.42;112049.66;5112447;28;20235;-72
2022/06/10 07:53:19;;;;;;;4.07;1.90;;;21.60;59.40;;;-142.21;83.21;112049.66;5112754;28;20290;-71
2022/06/10 07:55:48;;;;;;;3.97;2.07;;;21.70;59.00;;;-142.21;84.18;112049.66;5111952;28;20322;-71
2022/06/10 07:58:19;;;;;;;3.07;1.67;;;21.80;59.20;;;-142.21;80.86;112049.66;5113024;28;20299;-71
2022/06/10 08:00:46;;;;;;;4.27;2.10;;;21.80;58.10;;;-142.21;82.68;112049.66;5112545;28;20693;-71
2022/06/10 08:03:15;;;;;;;2.77;1.70;;;22.00;58.70;;;-142.21;80.60;112049.66;5113645;28;20286;-71
2022/06/10 08:05:42;;;;;;;7.27;1.80;;;22.00;58.10;;;-142.21;76.01;112049.66;5117134;28;20686;-71
2022/06/10 08:08:14;;;;;;;2.90;1.70;;;22.00;56.50;;;-142.21;75.98;112049.66;5116028;27;20287;-71
2022/06/10 08:10:42;;;;;;;4.07;1.90;;;22.00;56.80;;;-142.21;77.43;112049.66;5116978;28;20651;-70
2022/06/10 08:13:09;;;;;;;2.90;1.50;;;22.00;57.10;;;-142.21;81.56;112049.66;5116439;28;20227;-71
2022/06/10 08:15:38;;;;;;;3.33;2.17;;;22.10;57.90;;;-142.21;79.85;112049.66;5116708;28;20268;-71
2022/06/10 08:18:08;;;;;;;2.70;1.67;;;22.30;58.00;;;-142.21;76.68;112049.66;5116276;28;20235;-71
2022/06/10 08:23:27;;;;;;;3.23;1.80;;;22.40;57.20;;;-142.21;78.34;112049.66;5116301;28;20223;-71
2022/06/10 08:25:56;;;;;;;2.53;1.80;;;22.50;57.30;;;-142.21;76.13;112049.66;5112600;28;20242;-72
2022/06/10 08:28:25;;;;;;;4.33;2.17;;;22.60;56.60;;;-142.21;77.77;112049.66;5096169;28;20204;-71
2022/06/10 08:30:52;;;;;;;3.50;1.80;;;22.70;56.70;;;-142.21;77.65;112049.66;5095343;28;20214;-71
2022/06/10 08:33:20;;;;;;;2.90;2.00;;;22.80;56.80;;;-142.21;76.10;112049.66;5095888;28;20299;-72
2022/06/10 08:35:49;;;;;;;2.73;1.50;;;23.00;55.90;;;-142.21;77.70;112049.66;5096260;28;20319;-72
2022/06/10 08:38:18;;;;;;;2.80;1.70;;;23.10;56.50;;;-142.21;74.09;112049.66;5095477;28;20291;-72
2022/06/10 08:40:55;;;;;;;4.50;2.27;;;23.20;55.90;;;-142.21;69.32;112049.66;5097188;28;20259;-71
2022/06/10 08:43:42;;;;;;;2.33;1.60;;;23.20;54.60;;;-142.21;70.26;112049.66;5096018;28;20193;-70
2022/06/10 08:46:31;;;;;;;2.77;1.50;;;23.30;54.50;;;-142.21;63.78;112049.66;5095708;28;20559;-71
2022/06/10 08:49:35;;;;;;;2.83;1.60;;;23.40;53.00;;;-142.21;62.90;112049.66;5095112;28;20184;-71
2022/06/10 08:52:16;;;;;;;2.00;1.70;;;23.40;53.20;;;-142.21;59.63;112049.66;5095049;28;20199;-71
2022/06/10 08:54:59;;;;;;;2.80;1.50;;;23.40;52.10;;;-142.21;59.56;112049.66;5095595;28;20656;-71
2022/06/10 08:57:36;;;;;;;2.97;1.70;;;23.50;51.90;;;-142.21;59.72;112049.66;5095696;28;20224;-71
2022/06/10 09:00:06;;;;;;;4.20;1.70;;;23.50;52.00;;;-142.21;65.03;112049.66;5094919;28;20627;-71
2022/06/10 09:02:44;;;;;;;4.40;2.13;;;23.70;53.40;;;-142.21;64.06;112049.66;5095777;28;20521;-71
2022/06/10 09:05:20;;;;;;;2.97;1.73;;;23.80;53.10;;;-142.21;63.45;112049.66;5094749;28;20707;-71
2022/06/10 09:07:54;;;;;;;3.63;1.77;;;23.90;52.20;;;-142.21;56.67;112049.66;5095096;28;20247;-71
2022/06/10 09:10:29;;;;;;;1.60;1.20;;;24.00;50.90;;;-142.21;60.52;112049.66;5095068;28;20190;-71
2022/06/10 09:13:24;;;;;;;2.63;1.70;;;24.10;52.10;;;-142.21;59.67;112049.66;5094687;28;20657;-70
2022/06/10 09:15:59;;;;;;;3.93;1.60;;;24.20;51.40;;;-142.21;52.81;112049.66;5094536;28;20297;-72
2022/06/10 09:18:40;;;;;;;3.77;1.50;;;24.30;50.10;;;-142.21;51.91;112049.66;5094789;28;20737;-72
2022/06/10 09:21:16;;;;;;;2.53;1.40;;;24.30;49.60;;;-142.21;53.85;112049.66;5093769;28;20412;-72
2022/06/10 09:23:47;;;;;;;2.03;1.73;;;24.40;49.90;;;-142.21;51.04;112049.66;5095183;28;20255;-71
2022/06/10 09:26:24;;;;;;;2.30;1.40;;;24.40;49.00;;;-142.21;52.51;112049.66;5112265;28;20693;-72
2022/06/10 09:28:52;;;;;;;1.83;1.53;;;24.40;49.30;;;-142.21;45.15;112049.66;5115498;28;20191;-72
2022/06/10 09:31:37;;;;;;;3.00;1.57;;;24.40;46.90;;;-142.21;49.82;112049.66;5115415;28;20234;-72
2022/06/10 09:34:23;;;;;;;2.03;1.40;;;24.40;48.40;;;-142.21;45.09;112049.66;5114711;28;20248;-71
2022/06/10 09:37:01;;;;;;;2.03;1.20;;;24.40;46.10;;;-142.21;48.77;112049.66;5114692;28;20256;-71
2022/06/10 09:42:48;;;;;;;2.83;1.43;;;24.60;47.90;;;-142.21;49.16;112049.66;5115257;28;20191;-72
2022/06/10 09:45:23;;;;;;;3.93;1.43;;;24.60;48.50;;;-142.21;47.94;112049.66;5114703;28;20225;-72
2022/06/10 09:48:13;;;;;;;2.27;1.60;;;24.70;48.10;;;-142.21;55.68;112049.66;5114861;28;20250;-72
2022/06/10 09:50:51;;;;;;;1.70;1.00;;;24.90;50.30;;;-142.21;45.35;112049.66;5114603;28;20184;-71
2022/06/10 09:53:45;;;;;;;2.03;1.33;;;24.90;45.90;;;-142.21;46.22;112049.66;5096034;28;20214;-71
2022/06/10 09:57:04;;;;;;;3.13;1.50;;;25.00;46.80;;;-142.21;45.36;112049.66;5114149;28;20247;-72
2022/06/10 09:59:44;;;;;;;5.90;1.80;;;25.10;45.70;;;-142.21;46.87;112049.66;5115075;28;20612;-72
2022/06/10 10:02:42;;;;;;;4.00;1.20;;;25.20;47.60;;;-142.21;51.23;112049.66;5114210;28;20274;-72
2022/06/10 10:05:29;;;;;;;2.80;1.40;;;25.30;48.50;;;-142.21;51.24;112049.66;5112974;28;20739;-71
2022/06/10 10:08:16;;;;;;;2.53;1.30;;;25.50;48.60;;;-142.21;46.42;112049.66;5114067;28;20184;-72
2022/06/10 10:10:51;;;;;;;2.83;1.60;;;25.70;46.80;;;-142.21;44.35;112049.66;5114615;28;20256;-72
2022/06/10 10:13:50;;;;;;;2.83;1.60;;;25.60;45.80;;;-142.21;47.97;112049.66;5114431;28;20214;-72
2022/06/10 10:16:34;;;;;;;1.93;1.50;;;25.60;46.80;;;-142.21;44.47;112049.66;5114034;28;20588;-71
2022/06/10 10:19:31;;;;;;;1.60;1.10;;;25.70;45.90;;;-142.21;44.38;112049.66;5113587;28;20241;-72
2022/06/10 10:22:23;;;;;;;2.97;1.20;;;25.90;46.00;;;-142.21;42.94;112049.66;5113748;28;20227;-71
2022/06/10 10:24:51;;;;;;;2.77;1.40;;;26.00;45.40;;;-142.21;44.31;112049.66;5108027;28;20220;-72
2022/06/10 10:27:23;;;;;;;1.77;1.37;;;26.10;45.50;;;-142.21;42.99;112049.66;5107962;28;20199;-71
2022/06/10 10:30:02;;;;;;;2.07;1.40;;;26.00;44.70;;;-142.21;42.13;112049.66;5113942;27;20192;-71
2022/06/10 10:32:37;;;;;;;1.47;1.37;;;25.90;44.20;;;-142.21;42.72;112049.66;5114233;28;20278;-71
2022/06/10 10:35:19;;;;;;;2.43;1.20;;;25.90;45.50;;;-142.21;43.80;112049.66;5113020;27;20251;-71
2022/06/10 10:37:57;;;;;;;3.30;1.57;;;26.00;47.00;;;-142.21;41.65;112049.66;5113782;28;20241;-71
2022/06/10 10:40:36;;;;;;;3.40;1.47;;;26.10;44.30;;;-142.21;40.61;112049.66;5114144;28;20231;-71
2022/06/10 10:43:12;;;;;;;2.23;1.20;;;26.20;43.50;;;-142.21;44.52;112049.66;5113623;28;20192;-70